createdAt,value
2022-10-26T00:03:51.013Z,978.04
2022-10-26T00:09:22.694Z,978.09
2022-10-26T00:14:54.102Z,978.08
2022-10-26T00:20:26.141Z,978.05
2022-10-26T00:25:58.036Z,977.85
2022-10-26T00:31:29.691Z,977.94
2022-10-26T00:37:05.486Z,978.01
2022-10-26T00:42:37.174Z,977.84
2022-10-26T00:48:08.969Z,978.0
2022-10-26T00:53:40.668Z,978.21
2022-10-26T00:59:12.285Z,978.31
2022-10-26T01:04:43.917Z,978.27
2022-10-26T01:10:15.586Z,978.32
2022-10-26T01:15:47.474Z,978.36
2022-10-26T01:21:19.479Z,978.39
2022-10-26T01:32:22.583Z,978.14
2022-10-26T01:37:58.674Z,978.12
2022-10-26T01:43:30.417Z,977.98
2022-10-26T01:49:02.066Z,977.75
2022-10-26T01:54:34.130Z,977.54
2022-10-26T02:00:05.558Z,977.73
2022-10-26T02:05:37.416Z,977.66
2022-10-26T02:11:09.018Z,977.25
2022-10-26T02:16:40.851Z,977.24
2022-10-26T02:22:12.427Z,977.47
2022-10-26T02:27:44.446Z,977.62
2022-10-26T02:33:15.876Z,977.73
2022-10-26T02:38:52.262Z,977.96
2022-10-26T02:44:23.821Z,977.92
2022-10-26T02:49:55.583Z,977.98
2022-10-26T02:55:27.238Z,977.96
2022-10-26T03:00:59.186Z,978.11
2022-10-26T03:06:30.882Z,978.06
2022-10-26T03:12:02.422Z,977.99
2022-10-26T03:17:34.364Z,978.07
2022-10-26T03:23:05.809Z,978.49
2022-10-26T03:28:37.522Z,978.41
2022-10-26T03:34:09.545Z,978.05
2022-10-26T03:39:45.774Z,977.99
2022-10-26T03:45:17.386Z,978.54
2022-10-26T03:50:48.959Z,978.63
2022-10-26T03:56:20.706Z,978.31
2022-10-26T04:01:58.419Z,978.63
2022-10-26T04:07:24.227Z,978.37
2022-10-26T04:12:56.611Z,978.34
2022-10-26T04:18:27.726Z,978.49
2022-10-26T04:23:59.442Z,978.61
2022-10-26T04:29:31.105Z,978.36
2022-10-26T04:35:02.792Z,978.5
2022-10-26T04:40:39.097Z,978.51
2022-10-26T04:46:17.529Z,978.78
2022-10-26T04:51:42.342Z,978.65
2022-10-26T04:57:14.030Z,978.7
2022-10-26T05:02:46.138Z,979.08
2022-10-26T05:08:17.574Z,979.11
2022-10-26T05:13:49.256Z,979.38
2022-10-26T05:19:21.239Z,979.36
2022-10-26T05:24:52.770Z,979.05
2022-10-26T05:30:24.464Z,979.1
2022-10-26T05:35:56.010Z,979.21
2022-10-26T05:41:32.434Z,979.51
2022-10-26T05:47:04.067Z,979.83
2022-10-26T05:52:35.666Z,980.02
2022-10-26T05:58:07.725Z,980.34
2022-10-26T06:03:39.389Z,979.96
2022-10-26T06:09:10.950Z,980.09
2022-10-26T06:14:42.621Z,980.18
2022-10-26T06:20:14.341Z,980.46
2022-10-26T06:25:46.022Z,980.5
2022-10-26T06:31:18.210Z,980.6
2022-10-26T06:36:50.061Z,980.44
2022-10-26T06:42:25.578Z,980.44
2022-10-26T06:47:57.397Z,980.82
2022-10-26T06:53:29.211Z,980.81
2022-10-26T06:59:07.695Z,981.03
2022-10-26T07:04:32.890Z,981.08
2022-10-26T07:10:04.235Z,980.97
2022-10-26T07:15:36.218Z,981.2
2022-10-26T07:21:07.793Z,981.31
2022-10-26T07:26:39.618Z,981.25
2022-10-26T07:32:11.398Z,981.8
2022-10-26T07:37:42.927Z,982.06
2022-10-26T07:43:19.099Z,981.93
2022-10-26T07:48:50.820Z,982.17
2022-10-26T07:54:22.663Z,982.28
2022-10-26T07:59:54.570Z,982.01
2022-10-26T08:05:26.462Z,981.55
2022-10-26T08:10:59.202Z,981.93
2022-10-26T08:16:29.486Z,981.86
2022-10-26T08:22:01.257Z,982.04
2022-10-26T08:27:32.974Z,982.11
2022-10-26T08:33:04.495Z,982.28
2022-10-26T08:38:36.815Z,982.25
2022-10-26T08:44:12.320Z,982.36
2022-10-26T08:49:44.146Z,982.56
2022-10-26T08:55:15.624Z,982.74
2022-10-26T09:00:47.543Z,982.99
2022-10-26T09:06:19.185Z,983.12
2022-10-26T09:11:50.830Z,983.17
2022-10-26T09:17:22.629Z,983.34
2022-10-26T09:22:54.482Z,983.6
2022-10-26T09:28:26.154Z,983.91
2022-10-26T09:33:57.682Z,983.74
2022-10-26T09:39:29.493Z,984.04
2022-10-26T09:45:05.577Z,984.11
2022-10-26T09:50:37.538Z,984.18
2022-10-26T09:56:09.156Z,983.67
2022-10-26T10:01:43.335Z,984.04
2022-10-26T10:07:12.642Z,983.92
2022-10-26T10:12:44.303Z,983.84
2022-10-26T10:18:16.014Z,983.76
2022-10-26T10:23:47.595Z,984.18
2022-10-26T10:29:19.386Z,984.05
2022-10-26T10:34:51.494Z,984.1
2022-10-26T10:40:22.968Z,984.36
2022-10-26T10:46:00.632Z,984.65
2022-10-26T10:51:30.707Z,984.53
2022-10-26T10:57:02.367Z,984.51
2022-10-26T11:02:34.184Z,984.59
2022-10-26T11:08:05.866Z,985.06
2022-10-26T11:13:37.545Z,984.72
2022-10-26T11:19:09.298Z,984.61
2022-10-26T11:24:40.929Z,984.52
2022-10-26T11:30:12.698Z,985.03
2022-10-26T11:35:44.580Z,985.06
2022-10-26T11:41:16.179Z,984.77
2022-10-26T11:46:52.297Z,984.39
2022-10-26T11:52:24.057Z,984.69
2022-10-26T11:57:55.981Z,984.69
2022-10-26T12:03:27.647Z,984.48
2022-10-26T12:08:59.169Z,984.6
2022-10-26T12:14:30.891Z,984.03
2022-10-26T12:20:02.689Z,984.1
2022-10-26T12:25:34.525Z,984.1
2022-10-26T12:31:06.054Z,983.88
2022-10-26T12:36:37.773Z,983.98
2022-10-26T12:42:09.506Z,983.77
2022-10-26T12:47:45.722Z,983.99
2022-10-26T12:53:17.546Z,984.12
2022-10-26T12:58:49.083Z,983.81
2022-10-26T13:04:20.839Z,983.93
2022-10-26T13:09:52.666Z,984.23
2022-10-26T13:15:24.402Z,984.15
2022-10-26T13:20:56.201Z,984.35
2022-10-26T13:26:27.841Z,984.42
2022-10-26T13:31:59.322Z,983.61
2022-10-26T13:37:31.101Z,984.0
2022-10-26T13:43:02.951Z,983.54
2022-10-26T13:48:40.953Z,983.89
2022-10-26T13:54:12.694Z,984.13
2022-10-26T13:59:44.722Z,984.02
2022-10-26T14:05:16.375Z,984.12
2022-10-26T14:10:47.929Z,983.97
2022-10-26T14:16:19.729Z,984.01
2022-10-26T14:21:51.284Z,983.85
2022-10-26T14:27:23.200Z,984.06
2022-10-26T14:32:55.517Z,984.17
2022-10-26T14:38:26.446Z,984.03
2022-10-26T14:43:58.276Z,983.93
2022-10-26T14:49:34.322Z,984.07
2022-10-26T14:55:06.024Z,984.08
2022-10-26T15:00:37.892Z,983.79
2022-10-26T15:06:09.511Z,983.8
2022-10-26T15:11:41.309Z,983.79
2022-10-26T15:17:12.835Z,983.82
2022-10-26T15:22:44.810Z,983.64
2022-10-26T15:28:16.366Z,983.52
2022-10-26T15:33:48.082Z,983.28
2022-10-26T15:39:20.157Z,983.14
2022-10-26T15:44:51.730Z,983.02
2022-10-26T15:50:27.766Z,982.86
2022-10-26T15:55:59.685Z,982.71
2022-10-26T16:01:31.625Z,982.56
2022-10-26T16:07:02.813Z,982.57
2022-10-26T16:12:34.593Z,982.44
2022-10-26T16:18:06.746Z,982.43
2022-10-26T16:23:38.171Z,982.36
2022-10-26T16:29:09.781Z,982.39
2022-10-26T16:34:43.353Z,982.32
2022-10-26T16:40:13.126Z,982.33
2022-10-26T16:45:45.082Z,982.4
2022-10-26T16:51:21.027Z,982.27
2022-10-26T16:56:52.854Z,982.39
2022-10-26T17:02:25.039Z,982.45
2022-10-26T17:07:56.107Z,982.48
2022-10-26T17:13:27.858Z,982.59
2022-10-26T17:18:59.546Z,982.55
2022-10-26T17:24:31.895Z,982.63
2022-10-26T17:30:03.121Z,982.78
2022-10-26T17:35:34.910Z,982.85
2022-10-26T17:41:06.721Z,982.91
2022-10-26T17:46:38.439Z,982.95
2022-10-26T17:52:14.433Z,982.94
2022-10-26T17:57:46.274Z,982.93
2022-10-26T18:03:17.978Z,983.02
2022-10-26T18:08:49.534Z,983.04
2022-10-26T18:14:21.328Z,983.22
2022-10-26T18:19:53.282Z,983.29
2022-10-26T18:25:24.906Z,983.36
2022-10-26T18:30:56.429Z,983.4
2022-10-26T18:36:28.316Z,983.2
2022-10-26T18:42:00.035Z,983.07
2022-10-26T18:47:31.635Z,983.12
2022-10-26T18:53:10.006Z,983.15
2022-10-26T18:58:41.571Z,983.06
2022-10-26T19:04:13.357Z,982.9
2022-10-26T19:09:45.133Z,982.95
2022-10-26T19:15:16.774Z,982.95
2022-10-26T19:20:48.572Z,983.06
2022-10-26T19:26:20.234Z,983.16
2022-10-26T19:31:52.785Z,983.1
2022-10-26T19:37:28.886Z,983.12
2022-10-26T19:42:55.935Z,983.06
2022-10-26T19:48:27.991Z,983.12
2022-10-26T19:54:06.200Z,983.1
2022-10-26T19:59:37.596Z,983.13
2022-10-26T20:05:09.535Z,983.12
2022-10-26T20:10:41.438Z,983.2
2022-10-26T20:16:13.501Z,983.18
2022-10-26T20:21:46.077Z,983.31
2022-10-26T20:27:17.254Z,983.38
2022-10-26T20:32:49.218Z,983.47
2022-10-26T20:38:20.906Z,983.31
2022-10-26T20:43:58.462Z,983.87
2022-10-26T20:49:24.468Z,983.82
2022-10-26T20:55:00.127Z,983.94
2022-10-26T21:00:32.522Z,983.88
2022-10-26T21:06:04.043Z,984.02
2022-10-26T21:11:35.809Z,984.09
2022-10-26T21:17:07.512Z,984.17
2022-10-26T21:22:39.035Z,984.1
2022-10-26T21:28:10.655Z,983.97
2022-10-26T21:33:42.400Z,983.98
2022-10-26T21:39:14.448Z,984.04
2022-10-26T21:44:45.778Z,984.01
2022-10-26T21:50:17.634Z,984.11
2022-10-26T21:55:53.594Z,984.14
2022-10-26T22:01:25.649Z,984.18
2022-10-26T22:06:57.087Z,984.08
2022-10-26T22:12:28.672Z,984.1
2022-10-26T22:18:00.657Z,984.13
2022-10-26T22:23:32.405Z,984.14
2022-10-26T22:29:04.345Z,984.26
2022-10-26T22:34:35.863Z,984.25
2022-10-26T22:40:07.523Z,984.41
2022-10-26T22:45:39.139Z,984.54
2022-10-26T22:51:11.066Z,984.58
2022-10-26T22:56:49.758Z,984.52
2022-10-26T23:02:21.108Z,984.62
2022-10-26T23:07:53.684Z,984.56
2022-10-26T23:13:24.287Z,984.61
2022-10-26T23:18:56.043Z,984.84
2022-10-26T23:24:27.826Z,984.9
2022-10-26T23:29:59.506Z,984.9
2022-10-26T23:35:31.184Z,984.94
2022-10-26T23:41:03.086Z,985.0
2022-10-26T23:46:34.918Z,984.92
2022-10-26T23:52:06.423Z,984.95
2022-10-26T23:57:42.534Z,984.9
